createdAt,value
2023-03-12T00:02:35.674Z,2.00
2023-03-12T00:05:57.688Z,2.20
2023-03-12T00:09:20.933Z,2.40
2023-03-12T00:12:42.588Z,2.30
2023-03-12T00:16:13.131Z,2.40
2023-03-12T00:19:34.816Z,2.90
2023-03-12T00:22:56.516Z,2.30
2023-03-12T00:26:19.145Z,2.40
2023-03-12T00:29:40.875Z,2.40
2023-03-12T00:33:02.585Z,2.40
2023-03-12T00:36:27.026Z,2.40
2023-03-12T00:39:48.921Z,3.10
2023-03-12T00:43:10.745Z,2.00
2023-03-12T00:46:32.629Z,3.10
2023-03-12T00:49:54.428Z,2.60
2023-03-12T00:53:16.153Z,2.30
2023-03-12T00:56:37.837Z,2.60
2023-03-12T00:59:59.650Z,2.60
2023-03-12T01:03:21.363Z,2.40
2023-03-12T01:06:43.576Z,2.30
2023-03-12T01:10:06.844Z,2.80
2023-03-12T01:13:28.997Z,2.70
2023-03-12T01:16:52.458Z,3.30
2023-03-12T01:20:15.255Z,3.00
2023-03-12T01:23:38.030Z,2.70
2023-03-12T01:27:00.265Z,3.60
2023-03-12T01:30:21.947Z,3.00
2023-03-12T01:33:43.756Z,3.40
2023-03-12T01:37:06.966Z,3.00
2023-03-12T01:40:29.372Z,3.10
2023-03-12T01:43:52.351Z,2.80
2023-03-12T01:47:14.472Z,3.30
2023-03-12T01:50:36.667Z,3.30
2023-03-12T01:54:01.165Z,3.00
2023-03-12T01:57:38.548Z,3.40
2023-03-12T02:01:02.082Z,3.30
2023-03-12T02:04:26.086Z,4.10
2023-03-12T02:07:48.093Z,3.50
2023-03-12T02:11:09.976Z,3.50
2023-03-12T02:14:32.485Z,3.40
2023-03-12T02:17:54.562Z,3.70
2023-03-12T02:21:26.401Z,3.40
2023-03-12T02:24:56.989Z,3.60
2023-03-12T02:28:23.632Z,3.20
2023-03-12T02:31:51.244Z,3.80
2023-03-12T02:35:14.759Z,3.10
2023-03-12T02:38:56.760Z,3.50
2023-03-12T02:42:18.871Z,3.40
2023-03-12T02:45:40.568Z,3.60
2023-03-12T02:49:02.871Z,3.70
2023-03-12T02:52:24.718Z,3.20
2023-03-12T02:55:46.450Z,2.90
2023-03-12T02:59:08.896Z,3.30
2023-03-12T03:02:33.664Z,3.20
2023-03-12T03:05:55.536Z,3.60
2023-03-12T03:09:18.429Z,3.70
2023-03-12T03:12:42.497Z,3.10
2023-03-12T03:16:04.792Z,3.40
2023-03-12T03:19:26.772Z,2.60
2023-03-12T03:22:48.483Z,3.30
2023-03-12T03:26:10.617Z,3.40
2023-03-12T03:29:32.412Z,3.60
2023-03-12T03:32:54.612Z,3.60
2023-03-12T03:36:17.213Z,3.60
2023-03-12T03:39:48.447Z,3.50
2023-03-12T03:43:10.209Z,2.90
2023-03-12T03:46:32.071Z,2.70
2023-03-12T03:49:57.030Z,3.20
2023-03-12T03:53:20.099Z,3.00
2023-03-12T03:56:42.254Z,3.20
2023-03-12T04:00:09.576Z,2.90
2023-03-12T04:03:35.476Z,2.60
2023-03-12T04:06:58.055Z,3.40
2023-03-12T04:10:21.487Z,2.80
2023-03-12T04:13:44.003Z,2.70
2023-03-12T04:17:06.109Z,3.00
2023-03-12T04:20:27.845Z,2.60
2023-03-12T04:23:49.742Z,2.50
2023-03-12T04:27:11.549Z,2.70
2023-03-12T04:30:33.676Z,2.20
2023-03-12T04:33:55.541Z,2.00
2023-03-12T04:37:18.208Z,2.10
2023-03-12T04:40:39.970Z,2.30
2023-03-12T04:44:02.446Z,2.40
2023-03-12T04:47:24.691Z,2.00
2023-03-12T04:50:46.488Z,2.40
2023-03-12T04:54:08.445Z,2.00
2023-03-12T04:57:31.251Z,2.50
2023-03-12T05:00:53.402Z,2.50
2023-03-12T05:04:15.180Z,2.20
2023-03-12T05:07:37.595Z,2.40
2023-03-12T05:10:59.881Z,2.10
2023-03-12T05:14:21.606Z,2.20
2023-03-12T05:17:44.472Z,1.80
2023-03-12T05:21:09.451Z,2.00
2023-03-12T05:24:31.312Z,1.70
2023-03-12T05:27:53.189Z,2.30
2023-03-12T05:31:15.621Z,1.50
2023-03-12T05:34:37.893Z,1.80
2023-03-12T05:37:59.573Z,2.00
2023-03-12T05:41:23.045Z,2.30
2023-03-12T05:44:45.289Z,1.70
2023-03-12T05:48:08.759Z,2.20
2023-03-12T05:51:30.568Z,2.30
2023-03-12T05:54:53.413Z,1.90
2023-03-12T05:58:15.780Z,1.90
2023-03-12T06:01:38.898Z,1.70
2023-03-12T06:05:03.772Z,2.10
2023-03-12T06:08:25.662Z,1.50
2023-03-12T06:11:49.579Z,1.60
2023-03-12T06:15:11.756Z,1.80
2023-03-12T06:18:35.236Z,1.60
2023-03-12T06:21:57.874Z,1.40
2023-03-12T06:25:21.496Z,1.80
2023-03-12T06:28:43.396Z,1.90
2023-03-12T06:32:05.350Z,1.60
2023-03-12T06:35:27.074Z,1.20
2023-03-12T06:38:48.826Z,1.70
2023-03-12T06:42:14.604Z,2.10
2023-03-12T06:45:36.310Z,1.50
2023-03-12T06:48:58.222Z,1.40
2023-03-12T06:52:19.972Z,1.50
2023-03-12T06:55:44.026Z,1.60
2023-03-12T06:59:05.791Z,1.10
2023-03-12T07:02:27.518Z,1.50
2023-03-12T07:05:50.556Z,1.00
2023-03-12T07:09:12.312Z,1.60
2023-03-12T07:12:34.027Z,1.50
2023-03-12T07:15:56.351Z,1.40
2023-03-12T07:19:19.665Z,1.20
2023-03-12T07:22:41.376Z,1.50
2023-03-12T07:26:07.983Z,1.50
2023-03-12T07:29:32.343Z,1.20
2023-03-12T07:32:54.143Z,1.30
2023-03-12T07:36:16.138Z,1.50
2023-03-12T07:39:38.285Z,1.20
2023-03-12T07:43:00.078Z,1.50
2023-03-12T07:46:22.895Z,1.70
2023-03-12T07:49:45.680Z,1.20
2023-03-12T07:53:07.746Z,1.70
2023-03-12T07:56:30.025Z,1.40
2023-03-12T07:59:52.467Z,1.70
2023-03-12T08:03:14.582Z,1.00
2023-03-12T08:06:38.514Z,1.30
2023-03-12T08:10:00.988Z,1.10
2023-03-12T08:13:24.506Z,1.20
2023-03-12T08:16:46.743Z,1.10
2023-03-12T08:20:12.327Z,1.30
2023-03-12T08:23:34.073Z,1.10
2023-03-12T08:26:56.175Z,1.00
2023-03-12T08:30:20.300Z,1.00
2023-03-12T08:33:43.625Z,1.00
2023-03-12T08:37:06.044Z,0.80
2023-03-12T08:40:28.372Z,0.90
2023-03-12T08:43:50.190Z,1.10
2023-03-12T08:47:11.903Z,0.90
2023-03-12T08:50:33.918Z,0.90
2023-03-12T08:53:55.822Z,1.10
2023-03-12T08:57:17.906Z,0.90
2023-03-12T09:00:39.870Z,0.90
2023-03-12T09:04:02.725Z,1.00
2023-03-12T09:07:24.513Z,0.90
2023-03-12T09:10:49.581Z,0.70
2023-03-12T09:17:54.111Z,0.70
2023-03-12T09:21:16.000Z,0.80
2023-03-12T09:24:37.961Z,0.80
2023-03-12T09:27:59.688Z,0.90
2023-03-12T09:31:21.726Z,0.70
2023-03-12T09:34:43.503Z,0.70
2023-03-12T09:41:44.288Z,0.70
2023-03-12T09:45:08.125Z,1.00
2023-03-12T09:52:28.265Z,0.60
2023-03-12T09:55:51.432Z,1.60
2023-03-12T09:59:13.263Z,0.60
2023-03-12T10:02:53.832Z,0.90
2023-03-12T10:06:21.783Z,0.60
2023-03-12T10:10:01.254Z,0.60
2023-03-12T10:13:38.415Z,0.70
2023-03-12T10:17:41.383Z,0.70
2023-03-12T10:21:03.294Z,0.60
2023-03-12T10:25:09.611Z,0.70
2023-03-12T10:28:46.347Z,0.90
2023-03-12T10:32:10.747Z,0.80
2023-03-12T10:35:32.604Z,0.70
2023-03-12T10:38:54.460Z,0.60
2023-03-12T10:42:27.750Z,0.60
2023-03-12T10:46:02.786Z,0.60
2023-03-12T10:49:27.504Z,1.00
2023-03-12T10:52:52.186Z,0.60
2023-03-12T10:56:16.115Z,0.40
2023-03-12T10:59:43.233Z,0.70
2023-03-12T11:03:07.176Z,0.60
2023-03-12T11:06:30.606Z,0.80
2023-03-12T11:10:17.296Z,0.50
2023-03-12T11:13:41.530Z,0.70
2023-03-12T11:17:20.742Z,0.70
2023-03-12T11:20:42.642Z,0.60
2023-03-12T11:24:08.469Z,0.70
2023-03-12T11:27:46.416Z,0.90
2023-03-12T11:31:27.827Z,0.50
2023-03-12T11:34:50.326Z,0.70
2023-03-12T11:38:31.674Z,0.50
2023-03-12T11:42:08.698Z,0.70
2023-03-12T11:45:45.034Z,0.60
2023-03-12T11:49:18.838Z,0.50
2023-03-12T11:52:59.090Z,0.50
2023-03-12T11:56:30.641Z,0.50
2023-03-12T12:00:17.542Z,0.60
2023-03-12T12:03:51.976Z,0.70
2023-03-12T12:07:29.054Z,0.60
2023-03-12T12:11:02.750Z,0.60
2023-03-12T12:14:53.546Z,0.60
2023-03-12T12:18:29.787Z,0.50
2023-03-12T12:22:06.916Z,0.60
2023-03-12T12:26:05.795Z,0.80
2023-03-12T12:29:36.963Z,0.50
2023-03-12T12:33:35.617Z,0.60
2023-03-12T12:37:12.129Z,0.70
2023-03-12T12:41:09.541Z,1.00
2023-03-12T12:44:38.968Z,0.70
2023-03-12T12:48:04.628Z,0.60
2023-03-12T12:51:40.727Z,0.60
2023-03-12T12:55:30.666Z,0.50
2023-03-12T12:58:58.460Z,0.80
2023-03-12T13:02:23.213Z,0.90
2023-03-12T13:05:50.323Z,1.40
2023-03-12T13:09:16.315Z,0.80
2023-03-12T13:12:55.611Z,1.20
2023-03-12T13:16:36.456Z,1.10
2023-03-12T13:20:13.569Z,1.00
2023-03-12T13:24:22.581Z,0.90
2023-03-12T13:27:48.361Z,0.90
2023-03-12T13:31:29.096Z,1.60
2023-03-12T13:34:50.932Z,1.20
2023-03-12T13:38:22.358Z,1.20
2023-03-12T13:41:52.271Z,1.20
2023-03-12T13:45:26.638Z,0.90
2023-03-12T13:48:49.648Z,1.00
2023-03-12T13:52:14.366Z,1.20
2023-03-12T13:55:46.035Z,0.90
2023-03-12T13:59:14.228Z,1.10
2023-03-12T14:02:42.364Z,1.20
2023-03-12T14:06:13.671Z,1.00
2023-03-12T14:10:03.153Z,1.20
2023-03-12T14:14:04.685Z,1.40
2023-03-12T14:17:30.654Z,1.00
2023-03-12T14:20:58.629Z,1.10
2023-03-12T14:24:20.322Z,1.20
2023-03-12T14:27:45.873Z,0.90
2023-03-12T14:31:15.016Z,1.00
2023-03-12T14:34:46.689Z,1.00
2023-03-12T14:38:35.917Z,1.00
2023-03-12T14:45:23.982Z,1.00
2023-03-12T14:48:49.825Z,1.10
2023-03-12T14:52:13.790Z,1.30
2023-03-12T14:55:36.155Z,1.30
2023-03-12T14:58:59.955Z,1.00
2023-03-12T15:02:22.141Z,1.30
2023-03-12T15:05:48.662Z,1.40
2023-03-12T15:09:28.856Z,1.20
2023-03-12T15:12:52.703Z,1.40
2023-03-12T15:16:14.536Z,1.00
2023-03-12T15:19:42.433Z,0.90
2023-03-12T15:23:04.885Z,1.60
2023-03-12T15:26:33.205Z,1.70
2023-03-12T15:29:59.178Z,1.90
2023-03-12T15:33:20.964Z,1.80
2023-03-12T15:36:49.713Z,1.90
2023-03-12T15:40:25.573Z,2.10
2023-03-12T15:43:52.298Z,1.30
2023-03-12T15:47:19.351Z,1.60
2023-03-12T15:50:45.296Z,2.20
2023-03-12T15:54:25.869Z,2.10
2023-03-12T15:57:55.668Z,2.10
2023-03-12T16:01:19.090Z,1.70
2023-03-12T16:04:40.826Z,2.00
2023-03-12T16:08:18.660Z,2.00
2023-03-12T16:11:40.436Z,2.10
2023-03-12T16:15:02.340Z,1.60
2023-03-12T16:18:27.151Z,2.10
2023-03-12T16:21:50.274Z,1.90
2023-03-12T16:25:13.274Z,1.50
2023-03-12T16:28:36.095Z,1.70
2023-03-12T16:31:57.917Z,1.50
2023-03-12T16:35:20.458Z,1.20
2023-03-12T16:38:43.802Z,2.10
2023-03-12T16:42:21.298Z,1.70
2023-03-12T16:45:44.787Z,1.60
2023-03-12T16:49:14.521Z,1.60
2023-03-12T16:52:36.439Z,1.40
2023-03-12T16:56:00.881Z,1.70
2023-03-12T16:59:27.363Z,1.50
2023-03-12T17:02:49.885Z,1.40
2023-03-12T17:06:24.059Z,1.50
2023-03-12T17:09:45.813Z,2.30
2023-03-12T17:13:10.386Z,1.50
2023-03-12T17:16:32.414Z,1.90
2023-03-12T17:19:54.752Z,1.80
2023-03-12T17:23:16.642Z,1.40
2023-03-12T17:26:38.588Z,1.70
2023-03-12T17:30:00.575Z,1.40
2023-03-12T17:33:22.451Z,1.60
2023-03-12T17:36:44.444Z,1.90
2023-03-12T17:40:10.982Z,2.50
2023-03-12T17:43:35.036Z,1.80
2023-03-12T17:47:01.538Z,2.60
2023-03-12T17:50:23.586Z,1.90
2023-03-12T17:53:45.547Z,2.30
2023-03-12T17:57:07.755Z,2.10
2023-03-12T18:00:30.239Z,1.80
2023-03-12T18:03:51.902Z,2.10
2023-03-12T18:07:14.272Z,2.20
2023-03-12T18:10:39.098Z,2.40
2023-03-12T18:14:01.421Z,2.10
2023-03-12T18:17:23.131Z,3.90
2023-03-12T18:20:44.858Z,2.30
2023-03-12T18:24:14.043Z,3.10
2023-03-12T18:27:36.643Z,2.90
2023-03-12T18:30:58.433Z,2.60
2023-03-12T18:34:21.066Z,2.90
2023-03-12T18:37:44.252Z,3.10
2023-03-12T18:41:10.632Z,3.60
2023-03-12T18:44:32.865Z,3.10
2023-03-12T18:47:54.564Z,3.90
2023-03-12T18:51:16.332Z,3.60
2023-03-12T18:54:39.299Z,3.60
2023-03-12T18:58:00.970Z,4.00
2023-03-12T19:01:23.018Z,4.30
2023-03-12T19:04:45.595Z,5.10
2023-03-12T19:08:07.592Z,5.40
2023-03-12T19:11:29.323Z,5.10
2023-03-12T19:14:51.023Z,5.10
2023-03-12T19:18:12.798Z,5.20
2023-03-12T19:21:34.445Z,5.50
2023-03-12T19:24:56.319Z,5.60
2023-03-12T19:28:18.291Z,5.20
2023-03-12T19:31:40.210Z,6.20
2023-03-12T19:35:02.064Z,5.30
2023-03-12T19:38:23.871Z,5.70
2023-03-12T19:41:45.912Z,5.50
2023-03-12T19:45:08.152Z,5.80
2023-03-12T19:48:33.206Z,5.50
2023-03-12T19:51:54.952Z,5.70
2023-03-12T19:55:16.841Z,6.10
2023-03-12T19:58:38.759Z,5.60
2023-03-12T20:02:01.846Z,6.50
2023-03-12T20:05:26.396Z,6.20
2023-03-12T20:08:49.428Z,5.80
2023-03-12T20:12:11.687Z,5.80
2023-03-12T20:15:34.828Z,6.90
2023-03-12T20:18:56.513Z,6.50
2023-03-12T20:22:18.368Z,6.20
2023-03-12T20:25:41.097Z,6.10
2023-03-12T20:29:04.875Z,7.10
2023-03-12T20:32:26.872Z,6.30
2023-03-12T20:35:50.544Z,7.00
2023-03-12T20:39:13.158Z,6.50
2023-03-12T20:42:35.680Z,6.40
2023-03-12T20:45:57.657Z,5.30
2023-03-12T20:49:19.422Z,7.20
2023-03-12T20:52:41.187Z,5.70
2023-03-12T20:56:04.339Z,6.10
2023-03-12T20:59:27.760Z,7.80
2023-03-12T21:02:49.582Z,6.30
2023-03-12T21:06:11.375Z,6.10
2023-03-12T21:09:34.656Z,6.40
2023-03-12T21:12:56.509Z,6.80
2023-03-12T21:16:18.350Z,6.70
2023-03-12T21:19:44.060Z,5.60
2023-03-12T21:23:07.160Z,6.00
2023-03-12T21:26:31.365Z,5.90
2023-03-12T21:29:53.823Z,6.30
2023-03-12T21:33:15.516Z,6.10
2023-03-12T21:36:37.438Z,5.30
2023-03-12T21:40:01.341Z,6.00
2023-03-12T21:43:25.263Z,5.90
2023-03-12T21:46:47.001Z,6.20
2023-03-12T21:50:10.114Z,6.80
2023-03-12T21:53:34.872Z,5.90
2023-03-12T21:56:56.734Z,6.30
2023-03-12T22:00:18.815Z,6.50
2023-03-12T22:03:42.609Z,5.70
2023-03-12T22:07:04.310Z,6.10
2023-03-12T22:10:26.402Z,5.10
2023-03-12T22:13:48.625Z,5.90
2023-03-12T22:17:10.558Z,5.50
2023-03-12T22:20:37.101Z,5.40
2023-03-12T22:24:01.177Z,6.70
2023-03-12T22:27:22.891Z,5.80
2023-03-12T22:30:44.727Z,5.60
2023-03-12T22:34:06.421Z,6.60
2023-03-12T22:37:28.691Z,6.60
2023-03-12T22:40:50.790Z,6.00
2023-03-12T22:44:12.575Z,6.70
2023-03-12T22:47:34.405Z,6.70
2023-03-12T22:50:56.549Z,6.20
2023-03-12T22:54:18.307Z,6.00
2023-03-12T22:57:40.131Z,8.30
2023-03-12T23:01:05.821Z,7.30
2023-03-12T23:04:27.626Z,6.90
2023-03-12T23:07:49.651Z,7.60
2023-03-12T23:11:11.848Z,7.20
2023-03-12T23:14:34.045Z,6.60
2023-03-12T23:17:55.783Z,7.20
2023-03-12T23:21:22.878Z,8.10
2023-03-12T23:24:44.574Z,7.10
2023-03-12T23:28:06.281Z,6.90
2023-03-12T23:31:29.499Z,6.70
2023-03-12T23:34:51.360Z,7.60
2023-03-12T23:38:13.741Z,8.80
2023-03-12T23:41:35.462Z,7.60
2023-03-12T23:44:57.107Z,7.10
2023-03-12T23:48:19.068Z,7.20
2023-03-12T23:51:40.996Z,8.10
2023-03-12T23:55:02.682Z,7.20
2023-03-12T23:58:26.030Z,7.10
